createdAt,value
2022-08-19T00:04:35.826Z,27.80
2022-08-19T00:09:38.635Z,29.17
2022-08-19T00:14:43.277Z,27.42
2022-08-19T00:19:46.049Z,29.80
2022-08-19T00:24:49.608Z,29.10
2022-08-19T00:29:55.271Z,29.10
2022-08-19T00:34:58.184Z,28.48
2022-08-19T00:40:00.929Z,28.00
2022-08-19T00:45:12.490Z,28.15
2022-08-19T00:50:18.709Z,30.00
2022-08-19T00:55:24.417Z,28.92
2022-08-19T01:00:29.691Z,31.08
2022-08-19T01:05:32.790Z,31.42
2022-08-19T01:10:40.998Z,31.67
2022-08-19T01:15:48.848Z,29.98
2022-08-19T01:20:53.932Z,31.40
2022-08-19T01:25:57.993Z,30.42
2022-08-19T01:31:01.817Z,32.05
2022-08-19T01:36:13.689Z,29.33
2022-08-19T01:41:19.459Z,29.27
2022-08-19T01:46:24.907Z,31.73
2022-08-19T01:51:28.309Z,29.50
2022-08-19T01:56:32.911Z,30.30
2022-08-19T02:01:35.903Z,31.30
2022-08-19T02:06:39.195Z,28.50
2022-08-19T02:11:43.415Z,29.02
2022-08-19T02:16:46.153Z,28.95
2022-08-19T02:21:48.859Z,28.25
2022-08-19T02:26:53.173Z,29.25
2022-08-19T02:31:55.899Z,29.42
2022-08-19T02:37:01.900Z,32.75
2022-08-19T02:42:08.153Z,31.23
2022-08-19T02:47:11.961Z,32.38
2022-08-19T02:52:14.968Z,30.67
2022-08-19T02:57:19.041Z,32.20
2022-08-19T03:02:22.170Z,33.78
2022-08-19T03:07:24.863Z,33.45
2022-08-19T03:12:29.083Z,33.20
2022-08-19T03:17:31.891Z,33.15
2022-08-19T03:22:34.629Z,35.72
2022-08-19T03:27:38.688Z,37.30
2022-08-19T03:32:41.730Z,33.55
2022-08-19T03:37:48.267Z,35.28
2022-08-19T03:42:52.542Z,36.45
2022-08-19T03:47:55.328Z,37.28
2022-08-19T03:52:58.045Z,36.72
2022-08-19T03:58:02.105Z,37.78
2022-08-19T04:03:04.939Z,36.55
2022-08-19T04:08:10.792Z,40.28
2022-08-19T04:13:19.169Z,39.47
2022-08-19T04:18:21.869Z,38.80
2022-08-19T04:23:24.942Z,38.33
2022-08-19T04:28:29.868Z,39.60
2022-08-19T04:33:32.723Z,37.70
2022-08-19T04:38:35.562Z,39.17
2022-08-19T04:43:40.496Z,38.95
2022-08-19T04:48:49.435Z,37.53
2022-08-19T04:53:53.354Z,39.38
2022-08-19T04:58:58.503Z,37.10
2022-08-19T05:04:02.481Z,35.35
2022-08-19T05:09:07.334Z,39.10
2022-08-19T05:14:13.318Z,36.35
2022-08-19T05:19:33.691Z,34.17
2022-08-19T05:24:44.051Z,36.42
2022-08-19T05:29:55.469Z,35.45
2022-08-19T05:34:58.842Z,35.28
2022-08-19T05:40:02.376Z,34.08
2022-08-19T05:45:07.801Z,32.80
2022-08-19T05:50:11.477Z,34.33
2022-08-19T05:55:14.421Z,36.20
2022-08-19T06:00:24.032Z,36.58
2022-08-19T06:05:27.480Z,34.80
2022-08-19T06:10:30.970Z,34.72
2022-08-19T06:15:35.864Z,34.60
2022-08-19T06:20:55.078Z,36.72
2022-08-19T06:25:58.665Z,31.85
2022-08-19T06:31:08.230Z,33.72
2022-08-19T06:36:19.367Z,33.47
2022-08-19T06:41:22.111Z,33.28
2022-08-19T06:46:27.252Z,34.78
2022-08-19T06:56:35.593Z,37.10
2022-08-19T07:01:42.362Z,37.80
2022-08-19T07:06:45.727Z,38.15
2022-08-19T07:11:58.138Z,38.83
2022-08-19T07:17:02.241Z,39.67
2022-08-19T07:22:07.418Z,36.67
2022-08-19T07:27:16.978Z,37.45
2022-08-19T07:32:21.096Z,34.90
2022-08-19T07:37:23.906Z,35.15
2022-08-19T07:42:26.692Z,36.05
2022-08-19T07:47:48.968Z,40.67
2022-08-19T07:52:54.814Z,42.92
2022-08-19T07:57:57.648Z,46.53
2022-08-19T08:03:01.873Z,45.70
2022-08-19T08:08:37.211Z,44.33
2022-08-19T08:13:47.272Z,43.05
2022-08-19T08:24:31.558Z,42.38
2022-08-19T08:29:35.336Z,41.73
2022-08-19T08:34:39.474Z,38.22
2022-08-19T08:39:42.287Z,37.25
2022-08-19T08:50:06.711Z,41.53
2022-08-19T08:55:13.225Z,41.90
2022-08-19T09:00:21.858Z,36.55
2022-08-19T09:05:39.499Z,35.92
2022-08-19T09:10:55.309Z,33.05
2022-08-19T09:16:03.263Z,28.80
2022-08-19T09:21:08.682Z,26.27
2022-08-19T09:26:16.327Z,22.27
2022-08-19T09:31:21.682Z,23.42
2022-08-19T09:36:31.269Z,21.05
2022-08-19T09:41:37.798Z,18.23
2022-08-19T09:46:40.671Z,18.08
2022-08-19T09:51:46.882Z,14.60
2022-08-19T09:56:54.545Z,13.20
2022-08-19T10:02:04.002Z,14.32
2022-08-19T10:07:15.337Z,10.18
2022-08-19T10:12:20.157Z,9.70
2022-08-19T10:17:26.423Z,9.07
2022-08-19T10:22:31.653Z,7.82
2022-08-19T10:27:34.501Z,7.10
2022-08-19T10:32:38.554Z,6.28
2022-08-19T10:37:57.047Z,7.97
2022-08-19T10:43:02.852Z,7.22
2022-08-19T10:48:05.877Z,7.10
2022-08-19T10:53:10.438Z,6.72
2022-08-19T10:58:14.885Z,6.10
2022-08-19T11:03:17.741Z,7.30
2022-08-19T11:08:22.967Z,6.40
2022-08-19T11:18:30.084Z,6.05
2022-08-19T11:23:34.275Z,9.82
2022-08-19T11:28:37.419Z,7.03
2022-08-19T11:33:40.561Z,7.43
2022-08-19T11:38:46.890Z,9.40
2022-08-19T11:43:49.753Z,5.50
2022-08-19T11:48:53.086Z,7.60
2022-08-19T11:53:58.539Z,6.75
2022-08-19T11:59:02.743Z,4.63
2022-08-19T12:04:06.336Z,6.15
2022-08-19T12:09:11.989Z,6.38
2022-08-19T12:14:16.842Z,6.55
2022-08-19T12:19:22.591Z,4.90
2022-08-19T12:24:26.905Z,4.55
2022-08-19T12:29:30.277Z,5.38
2022-08-19T12:34:34.477Z,4.85
2022-08-19T12:39:40.828Z,3.80
2022-08-19T12:44:45.055Z,5.20
2022-08-19T12:49:53.068Z,6.80
2022-08-19T12:54:59.537Z,5.70
2022-08-19T13:00:07.059Z,4.82
2022-08-19T13:05:13.150Z,3.40
2022-08-19T13:10:20.505Z,4.10
2022-08-19T13:15:24.715Z,4.95
2022-08-19T13:20:27.902Z,5.38
2022-08-19T13:25:32.001Z,4.47
2022-08-19T13:30:52.780Z,4.38
2022-08-19T13:36:01.458Z,4.47
2022-08-19T13:41:12.153Z,6.85
2022-08-19T13:46:16.044Z,5.75
2022-08-19T13:51:19.707Z,6.55
2022-08-19T14:01:31.180Z,6.70
2022-08-19T14:06:34.049Z,6.30
2022-08-19T14:11:38.332Z,6.18
2022-08-19T14:16:41.041Z,6.30
2022-08-19T14:21:43.769Z,5.10
2022-08-19T14:26:47.862Z,4.75
2022-08-19T14:31:50.622Z,4.60
2022-08-19T14:36:53.667Z,4.32
2022-08-19T14:41:58.245Z,5.32
2022-08-19T14:47:01.066Z,4.95
2022-08-19T14:52:06.031Z,4.88
2022-08-19T14:57:13.506Z,5.40
2022-08-19T15:02:33.838Z,4.15
2022-08-19T15:07:37.293Z,3.90
2022-08-19T15:12:41.787Z,4.53
2022-08-19T15:17:46.694Z,4.07
2022-08-19T15:22:49.466Z,3.80
2022-08-19T15:27:53.680Z,3.80
2022-08-19T15:32:57.771Z,3.60
2022-08-19T15:38:00.611Z,3.40
2022-08-19T15:43:04.763Z,3.72
2022-08-19T15:48:07.652Z,3.40
2022-08-19T15:53:11.605Z,2.80
2022-08-19T15:58:35.312Z,2.53
2022-08-19T16:03:55.836Z,3.10
2022-08-19T16:09:01.908Z,3.13
2022-08-19T16:14:09.189Z,3.40
2022-08-19T16:19:13.359Z,4.50
2022-08-19T16:24:19.293Z,4.20
2022-08-19T16:29:33.832Z,5.13
2022-08-19T16:34:38.906Z,5.82
2022-08-19T16:39:43.642Z,5.70
2022-08-19T16:44:48.581Z,5.95
2022-08-19T16:49:52.990Z,6.17
2022-08-19T16:54:58.110Z,4.72
2022-08-19T17:00:05.219Z,6.50
2022-08-19T17:05:10.041Z,6.75
2022-08-19T17:10:12.830Z,7.50
2022-08-19T17:15:16.942Z,7.53
2022-08-19T17:20:20.299Z,7.38
2022-08-19T17:25:23.168Z,7.82
2022-08-19T17:30:27.440Z,8.18
2022-08-19T17:35:30.291Z,8.38
2022-08-19T17:40:33.261Z,9.32
2022-08-19T17:45:38.704Z,8.57
2022-08-19T17:50:41.642Z,9.05
2022-08-19T17:55:44.937Z,9.30
2022-08-19T18:00:54.418Z,8.85
2022-08-19T18:05:58.544Z,8.05
2022-08-19T18:11:01.522Z,8.98
2022-08-19T18:16:10.878Z,7.43
2022-08-19T18:21:13.781Z,7.82
2022-08-19T18:26:16.676Z,7.50
2022-08-19T18:31:21.054Z,7.88
2022-08-19T18:36:50.181Z,6.20
2022-08-19T18:42:04.290Z,6.10
2022-08-19T18:47:26.175Z,5.55
2022-08-19T18:52:28.931Z,5.32
2022-08-19T18:57:31.638Z,5.28
2022-08-19T19:02:39.879Z,5.10
2022-08-19T19:07:43.934Z,4.45
2022-08-19T19:12:47.159Z,4.28
2022-08-19T19:17:51.278Z,4.80
2022-08-19T19:22:55.948Z,4.00
2022-08-19T19:28:01.194Z,3.58
2022-08-19T19:33:05.878Z,4.32
2022-08-19T19:38:08.587Z,3.63
2022-08-19T19:43:11.301Z,4.50
2022-08-19T19:48:16.497Z,4.15
2022-08-19T19:53:19.270Z,3.15
2022-08-19T19:58:28.887Z,2.78
2022-08-19T20:03:33.422Z,2.95
2022-08-19T20:08:54.738Z,3.20
2022-08-19T20:13:57.515Z,3.17
2022-08-19T20:19:03.454Z,3.25
2022-08-19T20:24:09.905Z,3.53
2022-08-19T20:29:13.465Z,3.30
2022-08-19T20:34:37.421Z,2.58
2022-08-19T20:39:40.285Z,3.00
2022-08-19T20:44:43.047Z,2.60
2022-08-19T20:49:47.274Z,2.80
2022-08-19T20:54:50.154Z,3.13
2022-08-19T20:59:52.891Z,3.47
2022-08-19T21:04:59.099Z,2.45
2022-08-19T21:10:03.189Z,2.92
2022-08-19T21:15:08.639Z,2.40
2022-08-19T21:20:12.844Z,3.67
2022-08-19T21:25:17.159Z,3.05
2022-08-19T21:30:20.030Z,2.97
2022-08-19T21:35:24.965Z,2.83
2022-08-19T21:40:28.305Z,3.65
2022-08-19T21:45:31.321Z,2.85
2022-08-19T21:50:35.897Z,3.63
2022-08-19T21:55:39.702Z,2.70
2022-08-19T22:00:42.556Z,2.65
2022-08-19T22:05:46.669Z,2.78
2022-08-19T22:10:50.085Z,3.47
2022-08-19T22:15:52.918Z,2.80
2022-08-19T22:20:57.109Z,3.28
2022-08-19T22:25:59.959Z,3.53
2022-08-19T22:31:03.446Z,3.35
2022-08-19T22:36:08.678Z,3.38
2022-08-19T22:41:11.874Z,3.58
2022-08-19T22:46:17.398Z,3.85
2022-08-19T22:51:39.472Z,3.33
2022-08-19T22:56:43.337Z,3.13
2022-08-19T23:01:46.998Z,3.72
2022-08-19T23:06:52.768Z,3.30
2022-08-19T23:11:55.561Z,3.53
2022-08-19T23:16:59.231Z,2.63
2022-08-19T23:22:05.162Z,3.03
2022-08-19T23:27:25.745Z,2.95
2022-08-19T23:32:29.257Z,3.40
2022-08-19T23:37:33.355Z,2.97
2022-08-19T23:42:36.329Z,2.58
2022-08-19T23:47:40.589Z,2.47
2022-08-19T23:52:47.863Z,2.60
2022-08-19T23:57:50.839Z,2.30
